createdAt,value
2019-02-20T00:01:45.070Z,21.73
2019-02-20T00:04:13.460Z,18.45
2019-02-20T00:06:41.948Z,22.82
2019-02-20T00:09:10.393Z,15.25
2019-02-20T00:11:38.780Z,20.27
2019-02-20T00:14:07.184Z,18.80
2019-02-20T00:16:35.580Z,20.88
2019-02-20T00:19:03.981Z,18.10
2019-02-20T00:21:32.380Z,24.05
2019-02-20T00:24:00.804Z,19.70
2019-02-20T00:26:29.207Z,22.48
2019-02-20T00:28:57.609Z,21.02
2019-02-20T00:31:26.007Z,23.25
2019-02-20T00:33:54.395Z,15.58
2019-02-20T00:36:22.822Z,16.37
2019-02-20T00:38:51.256Z,24.25
2019-02-20T00:41:19.685Z,17.40
2019-02-20T00:43:49.736Z,17.25
2019-02-20T00:46:22.863Z,18.40
2019-02-20T00:48:55.865Z,18.12
2019-02-20T00:51:43.802Z,17.27
2019-02-20T00:54:12.226Z,17.27
2019-02-20T00:56:40.688Z,18.67
2019-02-20T00:59:09.117Z,15.60
2019-02-20T01:01:37.523Z,18.90
2019-02-20T01:04:05.980Z,17.50
2019-02-20T01:06:34.387Z,18.02
2019-02-20T01:09:03.050Z,15.20
2019-02-20T01:11:31.475Z,14.73
2019-02-20T01:13:59.884Z,17.30
2019-02-20T01:16:28.278Z,18.27
2019-02-20T01:18:56.694Z,22.93
2019-02-20T01:21:25.096Z,15.00
2019-02-20T01:23:53.534Z,16.35
2019-02-20T01:26:21.992Z,13.45
2019-02-20T01:28:50.402Z,17.32
2019-02-20T01:31:18.801Z,13.80
2019-02-20T01:33:47.193Z,14.73
2019-02-20T01:36:15.701Z,17.73
2019-02-20T01:38:44.097Z,15.72
2019-02-20T01:41:12.493Z,15.85
2019-02-20T01:43:40.896Z,17.98
2019-02-20T01:46:09.366Z,13.45
2019-02-20T01:48:37.860Z,14.55
2019-02-20T01:51:06.269Z,14.70
2019-02-20T01:53:34.668Z,15.08
2019-02-20T01:56:03.072Z,14.73
2019-02-20T01:58:31.468Z,11.50
2019-02-20T02:00:59.888Z,12.33
2019-02-20T02:03:28.340Z,15.68
2019-02-20T02:05:56.747Z,11.93
2019-02-20T02:08:25.169Z,16.35
2019-02-20T02:10:53.570Z,9.00
2019-02-20T02:13:22.021Z,13.20
2019-02-20T02:15:50.414Z,12.45
2019-02-20T02:18:18.808Z,12.60
2019-02-20T02:20:47.211Z,15.85
2019-02-20T02:23:19.846Z,12.68
2019-02-20T02:25:45.685Z,15.88
2019-02-20T02:28:14.080Z,13.72
2019-02-20T02:30:42.473Z,10.32
2019-02-20T02:33:10.874Z,11.12
2019-02-20T02:35:39.268Z,9.20
2019-02-20T02:38:07.702Z,15.40
2019-02-20T02:40:36.092Z,12.43
2019-02-20T02:43:04.496Z,15.85
2019-02-20T02:45:32.893Z,9.63
2019-02-20T02:48:01.292Z,10.80
2019-02-20T02:50:29.724Z,10.23
2019-02-20T02:52:58.117Z,9.25
2019-02-20T02:55:26.512Z,11.75
2019-02-20T02:57:54.920Z,14.70
2019-02-20T03:00:23.432Z,8.45
2019-02-20T03:02:51.853Z,10.88
2019-02-20T03:05:20.239Z,12.75
2019-02-20T03:07:48.631Z,9.80
2019-02-20T03:10:17.029Z,12.68
2019-02-20T03:12:45.488Z,11.55
2019-02-20T03:15:13.931Z,8.23
2019-02-20T03:17:42.376Z,13.40
2019-02-20T03:20:10.773Z,13.83
2019-02-20T03:22:39.168Z,10.63
2019-02-20T03:25:07.747Z,6.67
2019-02-20T03:27:36.175Z,6.92
2019-02-20T03:30:06.014Z,7.75
2019-02-20T03:32:34.407Z,6.67
2019-02-20T03:35:02.808Z,9.75
2019-02-20T03:37:31.200Z,6.78
2019-02-20T03:40:06.051Z,12.53
2019-02-20T03:42:34.453Z,8.05
2019-02-20T03:45:02.855Z,7.97
2019-02-20T03:47:31.251Z,11.73
2019-02-20T03:49:59.648Z,10.32
2019-02-20T03:52:28.078Z,8.45
2019-02-20T03:54:56.473Z,14.18
2019-02-20T03:57:24.887Z,14.40
2019-02-20T03:59:53.289Z,18.87
2019-02-20T04:02:21.758Z,10.65
2019-02-20T04:04:50.187Z,17.17
2019-02-20T04:07:18.585Z,12.40
2019-02-20T04:09:46.980Z,9.98
2019-02-20T04:12:15.372Z,13.53
2019-02-20T04:14:43.797Z,10.08
2019-02-20T04:17:12.220Z,12.00
2019-02-20T04:19:40.597Z,13.38
2019-02-20T04:22:08.989Z,8.90
2019-02-20T04:24:37.501Z,8.90
2019-02-20T04:27:05.896Z,7.50
2019-02-20T04:29:34.318Z,9.73
2019-02-20T04:32:02.710Z,13.08
2019-02-20T04:34:31.105Z,11.50
2019-02-20T04:36:59.509Z,7.47
2019-02-20T04:39:27.896Z,8.50
2019-02-20T04:41:56.397Z,9.08
2019-02-20T04:44:24.857Z,8.58
2019-02-20T04:46:53.251Z,8.73
2019-02-20T04:49:21.656Z,16.00
2019-02-20T04:51:50.051Z,6.42
2019-02-20T04:54:18.485Z,13.75
2019-02-20T04:56:46.968Z,11.05
2019-02-20T04:59:15.414Z,14.80
2019-02-20T05:01:43.844Z,9.43
2019-02-20T05:04:12.208Z,8.90
2019-02-20T05:06:40.638Z,8.08
2019-02-20T05:09:09.028Z,11.75
2019-02-20T05:11:37.432Z,11.12
2019-02-20T05:14:05.901Z,9.38
2019-02-20T05:16:34.301Z,14.98
2019-02-20T05:19:02.729Z,11.28
2019-02-20T05:21:31.125Z,12.18
2019-02-20T05:23:59.697Z,9.80
2019-02-20T05:26:28.096Z,14.05
2019-02-20T05:28:56.508Z,9.38
2019-02-20T05:31:24.997Z,11.33
2019-02-20T05:33:53.484Z,13.80
2019-02-20T05:36:21.892Z,14.95
2019-02-20T05:38:50.350Z,15.00
2019-02-20T05:41:18.751Z,17.12
2019-02-20T05:43:47.161Z,12.43
2019-02-20T05:46:15.553Z,14.73
2019-02-20T05:48:43.963Z,12.37
2019-02-20T05:51:12.354Z,17.40
2019-02-20T05:53:40.828Z,14.05
2019-02-20T05:56:09.245Z,15.63
2019-02-20T05:58:37.723Z,19.00
2019-02-20T06:01:06.120Z,19.00
2019-02-20T06:03:34.520Z,21.40
2019-02-20T06:06:02.929Z,18.40
2019-02-20T06:08:31.545Z,18.77
2019-02-20T06:10:59.946Z,18.70
2019-02-20T06:13:28.381Z,15.40
2019-02-20T06:15:56.781Z,15.25
2019-02-20T06:18:25.204Z,18.52
2019-02-20T06:20:53.642Z,15.95
2019-02-20T06:23:22.033Z,17.23
2019-02-20T06:25:50.524Z,19.92
2019-02-20T06:28:18.929Z,16.82
2019-02-20T06:30:47.332Z,19.98
2019-02-20T06:33:15.765Z,25.02
2019-02-20T06:35:44.161Z,21.85
2019-02-20T06:38:12.559Z,14.05
2019-02-20T06:40:40.975Z,28.40
2019-02-20T06:43:09.353Z,18.50
2019-02-20T06:45:37.784Z,18.55
2019-02-20T06:48:06.206Z,24.63
2019-02-20T06:50:34.591Z,16.60
2019-02-20T06:53:02.998Z,16.15
2019-02-20T06:55:31.392Z,24.50
2019-02-20T06:57:59.789Z,15.63
2019-02-20T07:00:34.208Z,18.05
2019-02-20T07:03:02.674Z,26.60
2019-02-20T07:05:36.380Z,22.02
2019-02-20T07:08:10.800Z,16.30
2019-02-20T07:11:03.736Z,11.60
2019-02-20T07:13:36.332Z,13.35
2019-02-20T07:16:08.034Z,11.45
2019-02-20T07:18:39.681Z,21.93
2019-02-20T07:21:14.347Z,22.17
2019-02-20T07:24:00.444Z,20.08
2019-02-20T07:26:56.068Z,16.90
2019-02-20T07:29:27.767Z,17.73
2019-02-20T07:31:56.189Z,25.15
2019-02-20T07:34:24.593Z,11.48
2019-02-20T07:36:52.986Z,14.85
2019-02-20T07:39:21.419Z,23.45
2019-02-20T07:41:49.885Z,16.57
2019-02-20T07:44:18.280Z,23.73
2019-02-20T07:46:46.701Z,20.20
2019-02-20T07:49:15.148Z,22.10
2019-02-20T07:51:43.664Z,17.75
2019-02-20T07:54:12.059Z,20.68
2019-02-20T07:56:40.452Z,19.00
2019-02-20T07:59:08.857Z,16.62
2019-02-20T08:01:37.252Z,24.90
2019-02-20T08:04:05.681Z,21.95
2019-02-20T08:06:34.093Z,19.05
2019-02-20T08:09:02.570Z,13.40
2019-02-20T08:11:30.972Z,17.45
2019-02-20T08:14:00.225Z,12.28
2019-02-20T08:16:28.732Z,13.05
2019-02-20T08:18:57.133Z,10.68
2019-02-20T08:21:25.613Z,13.00
2019-02-20T08:23:54.030Z,12.43
2019-02-20T08:26:22.425Z,13.22
2019-02-20T08:28:50.933Z,16.25
2019-02-20T08:31:19.332Z,15.15
2019-02-20T08:33:47.732Z,17.55
2019-02-20T08:36:16.131Z,15.10
2019-02-20T08:38:44.528Z,12.53
2019-02-20T08:41:12.953Z,15.38
2019-02-20T08:43:41.363Z,7.97
2019-02-20T08:46:09.837Z,13.38
2019-02-20T08:48:38.235Z,13.95
2019-02-20T08:51:06.704Z,17.65
2019-02-20T08:53:35.196Z,13.32
2019-02-20T08:56:03.614Z,13.68
2019-02-20T08:58:32.001Z,13.53
2019-02-20T09:01:00.400Z,8.03
2019-02-20T09:03:28.810Z,12.63
2019-02-20T09:05:57.317Z,12.63
2019-02-20T09:08:25.739Z,14.55
2019-02-20T09:10:54.136Z,12.45
2019-02-20T09:13:22.550Z,17.67
2019-02-20T09:15:51.853Z,14.93
2019-02-20T09:18:20.296Z,19.73
2019-02-20T09:20:48.695Z,14.68
2019-02-20T09:23:17.088Z,16.82
2019-02-20T09:25:45.488Z,16.75
2019-02-20T09:28:13.884Z,16.60
2019-02-20T09:30:42.389Z,9.70
2019-02-20T09:33:10.826Z,10.00
2019-02-20T09:35:39.217Z,11.83
2019-02-20T09:38:07.685Z,9.03
2019-02-20T09:40:36.729Z,13.15
2019-02-20T09:43:05.293Z,9.68
2019-02-20T09:45:41.750Z,11.43
2019-02-20T09:48:03.744Z,12.65
2019-02-20T09:50:32.152Z,16.20
2019-02-20T09:53:00.661Z,16.05
2019-02-20T09:55:29.056Z,12.28
2019-02-20T09:57:57.462Z,11.75
2019-02-20T10:00:25.867Z,10.70
2019-02-20T10:02:54.271Z,14.75
2019-02-20T10:05:22.703Z,12.80
2019-02-20T10:07:51.170Z,11.00
2019-02-20T10:10:19.648Z,11.00
2019-02-20T10:12:48.079Z,13.90
2019-02-20T10:15:20.180Z,14.75
2019-02-20T10:17:48.752Z,11.68
2019-02-20T10:20:17.165Z,12.63
2019-02-20T10:22:45.619Z,7.22
2019-02-20T10:25:14.242Z,9.15
2019-02-20T10:27:42.629Z,9.00
2019-02-20T10:30:19.035Z,10.65
2019-02-20T10:32:47.432Z,12.60
2019-02-20T10:35:15.832Z,6.55
2019-02-20T10:37:44.907Z,13.43
2019-02-20T10:40:13.329Z,10.50
2019-02-20T10:42:41.792Z,15.80
2019-02-20T10:45:11.732Z,16.00
2019-02-20T10:47:40.134Z,14.03
2019-02-20T10:50:10.776Z,12.98
2019-02-20T10:52:39.177Z,11.03
2019-02-20T10:55:09.050Z,19.70
2019-02-20T10:57:37.529Z,16.00
2019-02-20T11:00:10.828Z,20.60
2019-02-20T11:02:39.275Z,19.12
2019-02-20T11:05:07.701Z,14.43
2019-02-20T11:07:36.140Z,5.87
2019-02-20T11:10:06.676Z,5.97
2019-02-20T11:12:35.138Z,8.55
2019-02-20T11:15:04.006Z,8.90
2019-02-20T11:17:32.419Z,5.22
2019-02-20T11:20:00.848Z,9.45
2019-02-20T11:22:29.248Z,11.15
2019-02-20T11:24:57.730Z,5.58
2019-02-20T11:27:26.273Z,7.62
2019-02-20T11:29:54.652Z,5.55
2019-02-20T11:32:23.108Z,7.05
2019-02-20T11:34:51.504Z,9.23
2019-02-20T11:37:19.984Z,4.97
2019-02-20T11:39:48.384Z,3.75
2019-02-20T11:42:16.792Z,5.60
2019-02-20T11:44:45.217Z,9.60
2019-02-20T11:47:13.677Z,7.97
2019-02-20T11:49:42.076Z,5.97
2019-02-20T11:52:10.473Z,6.40
2019-02-20T11:54:38.860Z,7.22
2019-02-20T11:57:07.296Z,5.03
2019-02-20T11:59:35.780Z,3.67
2019-02-20T12:02:04.176Z,3.65
2019-02-20T12:04:32.596Z,5.83
2019-02-20T12:07:00.985Z,4.45
2019-02-20T12:09:29.492Z,8.23
2019-02-20T12:11:59.669Z,2.05
2019-02-20T12:14:28.051Z,4.20
2019-02-20T12:16:56.541Z,2.92
2019-02-20T12:19:25.008Z,9.98
2019-02-20T12:21:53.449Z,8.35
2019-02-20T12:24:21.873Z,3.75
2019-02-20T12:26:50.260Z,4.05
2019-02-20T12:29:18.660Z,6.15
2019-02-20T12:31:52.535Z,4.17
2019-02-20T12:34:17.222Z,4.87
2019-02-20T12:36:45.653Z,4.83
2019-02-20T12:39:14.129Z,8.35
2019-02-20T12:41:42.524Z,7.80
2019-02-20T12:44:10.928Z,4.60
2019-02-20T12:46:39.435Z,5.67
2019-02-20T12:49:07.830Z,6.10
2019-02-20T12:51:36.221Z,7.92
2019-02-20T12:54:04.622Z,10.55
2019-02-20T12:56:33.017Z,10.45
2019-02-20T12:59:07.648Z,9.25
2019-02-20T13:01:31.525Z,8.48
2019-02-20T13:03:59.920Z,7.60
2019-02-20T13:06:29.744Z,16.27
2019-02-20T13:08:58.331Z,12.25
2019-02-20T13:11:26.772Z,11.48
2019-02-20T13:13:55.202Z,13.32
2019-02-20T13:16:23.622Z,15.63
2019-02-20T13:18:52.044Z,7.65
2019-02-20T13:21:20.455Z,8.23
2019-02-20T13:23:48.876Z,12.25
2019-02-20T13:26:17.264Z,6.33
2019-02-20T13:28:45.661Z,8.53
2019-02-20T13:31:14.119Z,7.17
2019-02-20T13:33:42.516Z,6.75
2019-02-20T13:36:10.945Z,9.70
2019-02-20T13:38:39.340Z,8.70
2019-02-20T13:41:08.160Z,5.33
2019-02-20T13:43:36.618Z,7.15
2019-02-20T13:46:05.112Z,12.00
2019-02-20T13:48:34.912Z,6.58
2019-02-20T13:51:03.505Z,7.78
2019-02-20T13:53:33.651Z,10.23
2019-02-20T13:56:02.210Z,8.10
2019-02-20T13:58:30.837Z,6.67
2019-02-20T14:00:59.294Z,8.23
2019-02-20T14:03:27.768Z,10.03
2019-02-20T14:05:56.272Z,8.03
2019-02-20T14:08:24.682Z,10.58
2019-02-20T14:10:53.075Z,6.42
2019-02-20T14:13:21.494Z,7.33
2019-02-20T14:15:49.953Z,8.53
2019-02-20T14:18:18.397Z,8.40
2019-02-20T14:20:46.797Z,15.78
2019-02-20T14:23:16.128Z,21.07
2019-02-20T14:25:44.561Z,17.65
2019-02-20T14:28:12.960Z,19.67
2019-02-20T14:30:42.452Z,20.48
2019-02-20T14:33:10.841Z,11.10
2019-02-20T14:35:39.275Z,14.98
2019-02-20T14:38:07.670Z,7.08
2019-02-20T14:40:36.068Z,10.65
2019-02-20T14:43:04.596Z,9.35
2019-02-20T14:45:33.024Z,9.03
2019-02-20T14:48:01.620Z,5.12
2019-02-20T14:50:30.020Z,7.53
2019-02-20T14:52:58.497Z,7.60
2019-02-20T14:55:26.993Z,5.17
2019-02-20T14:57:55.389Z,4.47
2019-02-20T15:00:23.949Z,4.55
2019-02-20T15:02:52.345Z,7.25
2019-02-20T15:05:21.041Z,4.60
2019-02-20T15:07:49.546Z,7.10
2019-02-20T15:10:17.937Z,5.60
2019-02-20T15:12:46.726Z,3.40
2019-02-20T15:15:15.216Z,5.45
2019-02-20T15:17:43.609Z,3.83
2019-02-20T15:20:12.014Z,3.08
2019-02-20T15:22:40.405Z,3.90
2019-02-20T15:25:09.895Z,4.08
2019-02-20T15:27:38.289Z,6.75
2019-02-20T15:30:12.705Z,2.45
2019-02-20T15:32:41.185Z,4.20
2019-02-20T15:35:09.681Z,6.15
2019-02-20T15:37:38.115Z,9.50
2019-02-20T15:40:08.764Z,4.10
2019-02-20T15:42:37.149Z,7.12
2019-02-20T15:45:10.321Z,3.50
2019-02-20T15:47:38.784Z,6.15
2019-02-20T15:50:14.754Z,3.83
2019-02-20T15:52:43.185Z,6.28
2019-02-20T15:55:11.932Z,6.92
2019-02-20T15:57:40.333Z,4.72
2019-02-20T16:00:18.237Z,7.15
2019-02-20T16:02:46.676Z,7.17
2019-02-20T16:05:15.306Z,7.67
2019-02-20T16:07:43.696Z,8.68
2019-02-20T16:10:12.124Z,8.98
2019-02-20T16:12:40.517Z,3.10
2019-02-20T16:15:10.053Z,8.75
2019-02-20T16:17:38.508Z,6.42
2019-02-20T16:20:12.018Z,7.53
2019-02-20T16:22:40.408Z,7.20
2019-02-20T16:25:11.936Z,8.05
2019-02-20T16:27:46.783Z,7.75
2019-02-20T16:30:13.200Z,10.90
2019-02-20T16:32:41.624Z,5.15
2019-02-20T16:35:11.460Z,3.90
2019-02-20T16:37:39.856Z,5.42
2019-02-20T16:40:13.461Z,7.15
2019-02-20T16:42:41.920Z,4.42
2019-02-20T16:45:21.977Z,5.42
2019-02-20T16:47:50.914Z,3.12
2019-02-20T16:50:19.293Z,9.80
2019-02-20T16:52:47.697Z,5.00
2019-02-20T16:55:19.135Z,10.00
2019-02-20T16:57:55.951Z,8.60
2019-02-20T17:00:18.989Z,13.50
2019-02-20T17:02:47.465Z,8.40
2019-02-20T17:05:16.098Z,7.28
2019-02-20T17:07:44.541Z,16.30
2019-02-20T17:10:13.903Z,6.62
2019-02-20T17:12:42.310Z,8.00
2019-02-20T17:15:17.937Z,7.35
2019-02-20T17:17:46.336Z,16.27
2019-02-20T17:20:19.286Z,6.90
2019-02-20T17:22:47.748Z,6.22
2019-02-20T17:25:16.614Z,6.15
2019-02-20T17:27:45.973Z,7.45
2019-02-20T17:30:16.934Z,4.42
2019-02-20T17:32:45.725Z,4.47
2019-02-20T17:35:16.846Z,6.03
2019-02-20T17:37:44.922Z,7.50
2019-02-20T17:40:13.725Z,6.25
2019-02-20T17:42:42.283Z,4.78
2019-02-20T17:45:18.794Z,15.70
2019-02-20T17:47:47.566Z,6.22
2019-02-20T17:50:21.351Z,8.75
2019-02-20T17:52:49.726Z,5.42
2019-02-20T17:55:18.116Z,5.83
2019-02-20T17:57:46.516Z,5.92
2019-02-20T18:00:17.243Z,3.62
2019-02-20T18:02:45.638Z,7.15
2019-02-20T18:05:14.102Z,6.60
2019-02-20T18:07:48.829Z,5.10
2019-02-20T18:10:12.574Z,7.83
2019-02-20T18:12:40.960Z,7.45
2019-02-20T18:15:11.138Z,17.75
2019-02-20T18:17:39.525Z,9.67
2019-02-20T18:20:09.394Z,7.12
2019-02-20T18:22:37.793Z,12.20
2019-02-20T18:25:09.840Z,7.85
2019-02-20T18:27:38.011Z,5.72
2019-02-20T18:30:12.168Z,7.12
2019-02-20T18:32:40.585Z,12.85
2019-02-20T18:35:11.089Z,12.37
2019-02-20T18:37:39.530Z,9.95
2019-02-20T18:40:13.701Z,8.90
2019-02-20T18:42:42.095Z,5.62
2019-02-20T18:45:12.281Z,7.12
2019-02-20T18:47:40.665Z,5.45
2019-02-20T18:50:16.042Z,5.45
2019-02-20T18:52:44.392Z,8.23
2019-02-20T18:55:13.737Z,5.47
2019-02-20T18:57:42.179Z,15.45
2019-02-20T19:00:20.033Z,3.67
2019-02-20T19:02:48.433Z,6.80
2019-02-20T19:05:18.691Z,6.97
2019-02-20T19:07:46.975Z,8.43
2019-02-20T19:10:33.222Z,7.83
2019-02-20T19:13:21.694Z,8.98
2019-02-20T19:16:09.893Z,4.53
2019-02-20T19:18:47.635Z,3.62
2019-02-20T19:21:28.030Z,3.85
2019-02-20T19:24:16.783Z,12.60
2019-02-20T19:27:03.521Z,8.28
2019-02-20T19:29:41.283Z,10.35
2019-02-20T19:32:25.625Z,3.70
2019-02-20T19:35:15.731Z,4.62
2019-02-20T19:37:47.511Z,6.53
2019-02-20T19:40:28.175Z,4.58
2019-02-20T19:43:05.664Z,2.67
2019-02-20T19:45:46.293Z,5.50
2019-02-20T19:48:35.798Z,6.05
2019-02-20T19:51:30.076Z,5.05
2019-02-20T19:54:13.664Z,4.47
2019-02-20T19:57:00.351Z,11.12
2019-02-20T19:59:41.180Z,3.15
2019-02-20T20:02:29.534Z,8.25
2019-02-20T20:05:34.584Z,7.08
2019-02-20T20:08:08.963Z,4.53
2019-02-20T20:11:02.918Z,6.55
2019-02-20T20:13:37.429Z,9.43
2019-02-20T20:16:14.827Z,9.13
2019-02-20T20:19:02.324Z,9.73
2019-02-20T20:21:48.912Z,6.15
2019-02-20T20:24:37.285Z,6.42
2019-02-20T20:27:17.794Z,5.83
2019-02-20T20:30:07.221Z,5.50
2019-02-20T20:32:54.018Z,3.87
2019-02-20T20:35:43.001Z,6.00
2019-02-20T20:38:31.403Z,9.80
2019-02-20T20:41:18.177Z,5.10
2019-02-20T20:43:55.540Z,6.60
2019-02-20T20:46:38.848Z,5.25
2019-02-20T20:49:13.293Z,3.12
2019-02-20T20:51:57.072Z,6.83
2019-02-20T20:54:34.572Z,3.65
2019-02-20T20:57:28.462Z,8.00
2019-02-20T21:00:26.449Z,5.85
2019-02-20T21:02:58.345Z,2.95
2019-02-20T21:05:52.593Z,2.37
2019-02-20T21:08:25.349Z,11.63
2019-02-20T21:11:08.315Z,8.38
2019-02-20T21:13:55.165Z,6.05
2019-02-20T21:16:46.159Z,6.08
2019-02-20T21:19:34.234Z,5.47
2019-02-20T21:22:05.888Z,5.65
2019-02-20T21:24:57.325Z,5.50
2019-02-20T21:27:40.725Z,4.17
2019-02-20T21:30:28.617Z,5.83
2019-02-20T21:33:18.149Z,5.17
2019-02-20T21:36:04.910Z,4.65
2019-02-20T21:38:39.521Z,4.58
2019-02-20T21:41:26.301Z,3.70
2019-02-20T21:44:03.901Z,6.60
2019-02-20T21:46:35.552Z,3.17
2019-02-20T21:49:07.269Z,2.77
2019-02-20T21:52:03.218Z,2.52
2019-02-20T21:55:07.002Z,5.60
2019-02-20T21:57:58.040Z,7.10
2019-02-20T22:00:35.676Z,3.50
2019-02-20T22:03:12.974Z,6.10
2019-02-20T22:05:58.477Z,2.85
2019-02-20T22:08:45.277Z,4.47
2019-02-20T22:11:28.307Z,3.27
2019-02-20T22:13:59.965Z,3.17
2019-02-20T22:16:46.575Z,2.67
2019-02-20T22:19:32.709Z,6.55
2019-02-20T22:22:13.393Z,4.62
2019-02-20T22:25:18.553Z,3.92
2019-02-20T22:28:02.353Z,1.57
2019-02-20T22:30:50.520Z,6.10
2019-02-20T22:33:30.957Z,2.75
2019-02-20T22:36:20.508Z,7.70
2019-02-20T22:39:07.003Z,4.53
2019-02-20T22:41:55.248Z,3.15
2019-02-20T22:44:48.240Z,6.30
2019-02-20T22:47:28.844Z,3.67
2019-02-20T22:50:21.581Z,3.75
2019-02-20T22:53:10.961Z,1.85
2019-02-20T22:55:51.428Z,7.28
2019-02-20T22:58:28.930Z,4.47
2019-02-20T23:01:12.632Z,5.90
2019-02-20T23:04:00.964Z,2.58
2019-02-20T23:06:44.534Z,2.15
2019-02-20T23:09:38.969Z,1.57
2019-02-20T23:12:13.439Z,3.67
2019-02-20T23:15:00.531Z,6.15
2019-02-20T23:17:29.155Z,6.15
2019-02-20T23:19:57.591Z,2.45
2019-02-20T23:22:25.991Z,2.25
2019-02-20T23:24:54.412Z,5.25
2019-02-20T23:27:22.794Z,1.52
2019-02-20T23:29:51.184Z,3.45
2019-02-20T23:32:19.634Z,2.62
2019-02-20T23:34:48.034Z,4.80
2019-02-20T23:37:16.431Z,7.47
2019-02-20T23:39:44.835Z,1.70
2019-02-20T23:42:13.229Z,3.20
2019-02-20T23:44:42.188Z,3.67
2019-02-20T23:47:10.588Z,3.83
2019-02-20T23:49:39.003Z,3.52
2019-02-20T23:52:07.408Z,3.72
2019-02-20T23:54:35.808Z,2.10
2019-02-20T23:57:05.287Z,2.72
2019-02-20T23:59:33.693Z,3.27
